createdAt,value
2022-08-03T00:02:35.916Z,97501.84
2022-08-03T00:05:38.833Z,97498.81
2022-08-03T00:08:41.674Z,97497.09
2022-08-03T00:11:44.901Z,97490.72
2022-08-03T00:14:48.292Z,97490.13
2022-08-03T00:17:54.119Z,97501.84
2022-08-03T00:20:57.575Z,97502.16
2022-08-03T00:24:00.483Z,97503.00
2022-08-03T00:27:03.488Z,97508.06
2022-08-03T00:30:08.345Z,97508.13
2022-08-03T00:33:12.693Z,97509.69
2022-08-03T00:36:17.489Z,97500.81
2022-08-03T00:39:20.386Z,97508.13
2022-08-03T00:42:23.218Z,97507.72
2022-08-03T00:45:33.236Z,97510.63
2022-08-03T00:48:38.168Z,97512.63
2022-08-03T00:51:41.258Z,97510.91
2022-08-03T00:54:44.271Z,97514.84
2022-08-03T00:57:48.007Z,97513.78
2022-08-03T01:00:51.337Z,97506.22
2022-08-03T01:03:55.643Z,97498.06
2022-08-03T01:07:10.872Z,97500.53
2022-08-03T01:10:26.074Z,97500.72
2022-08-03T01:14:01.103Z,97501.69
2022-08-03T01:17:06.154Z,97497.47
2022-08-03T01:20:13.703Z,97500.31
2022-08-03T01:23:48.137Z,97497.66
2022-08-03T01:27:06.131Z,97499.94
2022-08-03T01:30:13.978Z,97502.91
2022-08-03T01:33:23.859Z,97501.84
2022-08-03T01:36:34.935Z,97502.88
2022-08-03T01:39:41.878Z,97499.50
2022-08-03T01:42:47.302Z,97506.16
2022-08-03T01:45:52.835Z,97500.72
2022-08-03T01:48:57.516Z,97496.03
2022-08-03T01:52:05.048Z,97498.78
2022-08-03T01:55:10.968Z,97494.09
2022-08-03T01:58:16.252Z,97496.13
2022-08-03T02:01:26.547Z,97497.19
2022-08-03T02:04:51.652Z,97495.84
2022-08-03T02:07:56.790Z,97500.19
2022-08-03T02:11:03.564Z,97493.22
2022-08-03T02:14:07.854Z,97496.50
2022-08-03T02:17:13.701Z,97491.84
2022-08-03T02:20:18.018Z,97491.19
2022-08-03T02:23:20.995Z,97495.75
2022-08-03T02:26:25.480Z,97499.75
2022-08-03T02:29:40.070Z,97491.19
2022-08-03T02:32:52.733Z,97494.13
2022-08-03T02:35:56.193Z,97489.97
2022-08-03T02:39:03.367Z,97493.69
2022-08-03T02:42:09.953Z,97488.88
2022-08-03T02:45:18.386Z,97485.16
2022-08-03T02:48:26.573Z,97489.50
2022-08-03T02:51:34.165Z,97487.66
2022-08-03T02:54:39.372Z,97490.56
2022-08-03T02:57:44.251Z,97485.06
2022-08-03T03:00:48.081Z,97485.69
2022-08-03T03:03:53.776Z,97478.69
2022-08-03T03:06:57.683Z,97487.72
2022-08-03T03:10:01.352Z,97479.13
2022-08-03T03:13:04.378Z,97486.09
2022-08-03T03:16:07.762Z,97483.41
2022-08-03T03:19:14.612Z,97486.53
2022-08-03T03:22:18.660Z,97487.38
2022-08-03T03:25:23.647Z,97489.44
2022-08-03T03:28:26.974Z,97479.59
2022-08-03T03:31:33.046Z,97486.84
2022-08-03T03:34:38.349Z,97481.97
2022-08-03T03:37:41.125Z,97478.09
2022-08-03T03:40:44.080Z,97477.66
2022-08-03T03:43:46.983Z,97482.22
2022-08-03T03:46:52.286Z,97481.38
2022-08-03T03:49:57.756Z,97479.16
2022-08-03T03:53:03.160Z,97475.63
2022-08-03T03:56:05.964Z,97482.22
2022-08-03T03:59:08.741Z,97484.50
2022-08-03T04:02:12.720Z,97483.91
2022-08-03T04:05:34.604Z,97478.78
2022-08-03T04:08:55.010Z,97482.69
2022-08-03T04:12:02.081Z,97485.94
2022-08-03T04:15:07.612Z,97491.31
2022-08-03T04:18:15.020Z,97481.91
2022-08-03T04:21:23.489Z,97488.00
2022-08-03T04:24:31.874Z,97492.09
2022-08-03T04:27:39.233Z,97496.63
2022-08-03T04:30:47.774Z,97488.41
2022-08-03T04:33:52.780Z,97494.53
2022-08-03T04:37:00.988Z,97498.81
2022-08-03T04:40:07.048Z,97494.09
2022-08-03T04:43:11.062Z,97499.41
2022-08-03T04:46:15.349Z,97497.34
2022-08-03T04:49:19.374Z,97502.19
2022-08-03T04:52:23.802Z,97511.16
2022-08-03T04:55:29.635Z,97512.34
2022-08-03T04:58:32.457Z,97512.28
2022-08-03T05:01:38.018Z,97517.16
2022-08-03T05:04:49.462Z,97514.19
2022-08-03T05:07:53.614Z,97528.84
2022-08-03T05:10:59.585Z,97528.59
2022-08-03T05:14:04.986Z,97528.91
2022-08-03T05:17:08.410Z,97533.91
2022-08-03T05:20:12.502Z,97536.25
2022-08-03T05:23:16.720Z,97529.16
2022-08-03T05:26:19.535Z,97536.88
2022-08-03T05:29:22.660Z,97528.72
2022-08-03T05:32:25.554Z,97543.06
2022-08-03T05:35:57.537Z,97535.13
2022-08-03T05:38:58.531Z,97528.38
2022-08-03T05:42:05.371Z,97535.78
2022-08-03T05:45:15.439Z,97537.09
2022-08-03T05:48:18.258Z,97540.16
2022-08-03T05:51:21.151Z,97539.50
2022-08-03T05:54:25.304Z,97548.00
2022-08-03T05:57:49.211Z,97549.75
2022-08-03T06:00:52.315Z,97554.44
2022-08-03T06:03:55.182Z,97549.47
2022-08-03T06:07:01.210Z,97548.78
2022-08-03T06:10:36.216Z,97551.69
2022-08-03T06:13:29.688Z,97563.19
2022-08-03T06:16:33.700Z,97561.28
2022-08-03T06:19:36.566Z,97565.38
2022-08-03T06:22:50.496Z,97563.91
2022-08-03T06:25:56.355Z,97567.44
2022-08-03T06:28:59.363Z,97567.19
2022-08-03T06:32:02.227Z,97570.53
2022-08-03T06:35:06.426Z,97574.19
2022-08-03T06:38:09.385Z,97577.09
2022-08-03T06:41:13.590Z,97577.38
2022-08-03T06:44:17.462Z,97576.91
2022-08-03T06:47:20.283Z,97580.84
2022-08-03T06:50:26.310Z,97586.03
2022-08-03T06:53:29.278Z,97573.19
2022-08-03T06:56:34.188Z,97581.28
2022-08-03T07:00:10.527Z,97589.22
2022-08-03T07:03:01.509Z,97585.84
2022-08-03T07:06:04.509Z,97586.03
2022-08-03T07:09:07.599Z,97592.13
2022-08-03T07:12:12.390Z,97592.50
2022-08-03T07:15:20.269Z,97591.19
2022-08-03T07:18:41.146Z,97592.59
2022-08-03T07:21:44.094Z,97596.41
2022-08-03T07:24:47.811Z,97595.25
2022-08-03T07:27:52.554Z,97603.53
2022-08-03T07:30:55.495Z,97603.34
2022-08-03T07:34:00.449Z,97595.56
2022-08-03T07:37:04.163Z,97592.66
2022-08-03T07:40:08.566Z,97582.03
2022-08-03T07:43:12.765Z,97581.81
2022-08-03T07:46:15.909Z,97588.56
2022-08-03T07:49:19.350Z,97591.00
2022-08-03T07:52:39.691Z,97588.03
2022-08-03T07:55:42.741Z,97588.56
2022-08-03T07:58:48.122Z,97592.66
2022-08-03T08:01:53.650Z,97582.97
2022-08-03T08:04:56.488Z,97578.63
2022-08-03T08:07:59.533Z,97579.72
2022-08-03T08:11:04.550Z,97576.72
2022-08-03T08:14:09.825Z,97577.53
2022-08-03T08:17:12.658Z,97579.94
2022-08-03T08:20:28.373Z,97589.94
2022-08-03T08:23:43.096Z,97583.72
2022-08-03T08:26:47.708Z,97573.75
2022-08-03T08:29:55.703Z,97578.84
2022-08-03T08:32:59.606Z,97575.00
2022-08-03T08:36:03.445Z,97580.44
2022-08-03T08:39:06.432Z,97575.53
2022-08-03T08:42:11.502Z,97573.53
2022-08-03T08:45:16.634Z,97576.00
2022-08-03T08:48:25.512Z,97574.38
2022-08-03T08:51:54.623Z,97577.09
2022-08-03T08:55:00.149Z,97573.81
2022-08-03T08:58:07.337Z,97567.03
2022-08-03T09:01:11.647Z,97564.53
2022-08-03T09:04:14.544Z,97567.50
2022-08-03T09:07:20.270Z,97560.78
2022-08-03T09:10:26.489Z,97565.94
2022-08-03T09:13:30.622Z,97561.84
2022-08-03T09:16:34.900Z,97566.09
2022-08-03T09:19:38.024Z,97560.34
2022-08-03T09:22:53.688Z,97556.91
2022-08-03T09:26:01.526Z,97565.22
2022-08-03T09:29:13.490Z,97559.69
2022-08-03T09:32:22.174Z,97562.28
2022-08-03T09:35:51.719Z,97556.69
2022-08-03T09:39:08.464Z,97568.69
2022-08-03T09:42:14.781Z,97555.75
2022-08-03T09:45:28.050Z,97551.06
2022-08-03T09:48:34.856Z,97551.88
2022-08-03T09:52:28.914Z,97551.19
2022-08-03T09:55:04.085Z,97543.78
2022-08-03T09:58:09.559Z,97536.41
2022-08-03T10:01:24.173Z,97541.47
2022-08-03T10:04:29.844Z,97537.00
2022-08-03T10:07:45.815Z,97533.69
2022-08-03T10:12:38.461Z,97523.25
2022-08-03T10:16:21.430Z,97531.91
2022-08-03T10:19:07.655Z,97531.44
2022-08-03T10:22:15.634Z,97522.81
2022-08-03T10:25:19.328Z,97518.63
2022-08-03T10:28:23.281Z,97528.25
2022-08-03T10:31:27.453Z,97517.06
2022-08-03T10:34:37.664Z,97505.41
2022-08-03T10:37:48.394Z,97508.97
2022-08-03T10:41:04.448Z,97509.34
2022-08-03T10:44:11.042Z,97520.22
2022-08-03T10:47:17.268Z,97511.53
2022-08-03T10:50:20.969Z,97508.16
2022-08-03T10:53:38.068Z,97497.91
2022-08-03T10:57:03.433Z,97497.56
2022-08-03T11:00:18.728Z,97483.97
2022-08-03T11:03:21.711Z,97481.50
2022-08-03T11:06:27.125Z,97489.28
2022-08-03T11:09:47.630Z,97486.97
2022-08-03T11:12:50.887Z,97486.34
2022-08-03T11:16:01.574Z,97477.03
2022-08-03T11:19:07.557Z,97479.91
2022-08-03T11:22:10.799Z,97480.22
2022-08-03T11:25:53.815Z,97469.81
2022-08-03T11:28:40.911Z,97470.97
2022-08-03T11:31:52.356Z,97469.16
2022-08-03T11:35:08.973Z,97471.81
2022-08-03T11:38:13.049Z,97470.22
2022-08-03T11:41:44.894Z,97465.75
2022-08-03T11:44:48.930Z,97464.78
2022-08-03T11:47:55.692Z,97466.22
2022-08-03T11:50:58.654Z,97462.84
2022-08-03T11:54:04.386Z,97465.13
2022-08-03T11:57:08.684Z,97454.56
2022-08-03T12:00:22.289Z,97457.66
2022-08-03T12:03:25.177Z,97465.13
2022-08-03T12:06:28.003Z,97461.00
2022-08-03T12:09:30.987Z,97451.31
2022-08-03T12:12:35.315Z,97455.97
2022-08-03T12:15:39.479Z,97449.44
2022-08-03T12:18:42.842Z,97445.09
2022-08-03T12:21:56.989Z,97454.97
2022-08-03T12:25:00.341Z,97445.00
2022-08-03T12:28:36.078Z,97438.72
2022-08-03T12:31:40.851Z,97430.34
2022-08-03T12:34:47.462Z,97431.34
2022-08-03T12:37:54.346Z,97429.72
2022-08-03T12:40:59.083Z,97429.94
2022-08-03T12:44:04.473Z,97430.34
2022-08-03T12:47:08.567Z,97422.09
2022-08-03T12:50:25.715Z,97426.72
2022-08-03T12:53:30.451Z,97422.25
2022-08-03T12:56:33.347Z,97412.97
2022-08-03T12:59:42.459Z,97407.03
2022-08-03T13:03:39.663Z,97414.16
2022-08-03T13:06:25.300Z,97402.28
2022-08-03T13:09:29.209Z,97410.63
2022-08-03T13:12:32.608Z,97408.72
2022-08-03T13:15:38.589Z,97398.50
2022-08-03T13:18:43.262Z,97396.16
2022-08-03T13:21:53.833Z,97394.44
2022-08-03T13:25:08.550Z,97400.84
2022-08-03T13:28:14.289Z,97399.38
2022-08-03T13:31:18.873Z,97405.41
2022-08-03T13:34:24.022Z,97394.88
2022-08-03T13:37:27.366Z,97398.44
2022-08-03T13:40:34.486Z,97393.25
2022-08-03T13:43:44.150Z,97384.91
2022-08-03T13:46:48.481Z,97392.31
2022-08-03T13:50:00.403Z,97389.47
2022-08-03T13:53:05.257Z,97384.81
2022-08-03T13:56:08.084Z,97374.84
2022-08-03T13:59:11.151Z,97370.78
2022-08-03T14:02:15.618Z,97369.69
2022-08-03T14:05:19.019Z,97360.66
2022-08-03T14:09:33.431Z,97365.09
2022-08-03T14:12:36.547Z,97364.00
2022-08-03T14:15:39.400Z,97366.47
2022-08-03T14:18:43.626Z,97357.88
2022-08-03T14:22:01.780Z,97364.41
2022-08-03T14:25:09.747Z,97362.00
2022-08-03T14:28:13.244Z,97355.06
2022-08-03T14:32:10.799Z,97344.44
2022-08-03T14:34:42.792Z,97355.59
2022-08-03T14:37:46.210Z,97346.16
2022-08-03T14:40:50.197Z,97340.94
2022-08-03T14:44:01.271Z,97352.34
2022-08-03T14:47:05.380Z,97344.81
2022-08-03T14:50:30.698Z,97337.72
2022-08-03T14:53:33.723Z,97333.69
2022-08-03T14:56:36.786Z,97334.16
2022-08-03T14:59:55.581Z,97331.03
2022-08-03T15:03:00.123Z,97342.72
2022-08-03T15:06:04.526Z,97332.81
2022-08-03T15:09:21.218Z,97326.34
2022-08-03T15:12:26.082Z,97323.88
2022-08-03T15:15:29.310Z,97315.19
2022-08-03T15:18:32.412Z,97314.25
2022-08-03T15:21:46.083Z,97317.91
2022-08-03T15:24:49.409Z,97313.28
2022-08-03T15:32:38.970Z,97308.41
2022-08-03T15:35:41.710Z,97307.75
2022-08-03T15:38:46.388Z,97314.09
2022-08-03T15:41:49.171Z,97312.72
2022-08-03T15:44:51.967Z,97302.75
2022-08-03T15:47:55.649Z,97302.25
2022-08-03T15:50:58.672Z,97296.00
2022-08-03T15:54:03.063Z,97295.56
2022-08-03T15:57:06.710Z,97294.25
2022-08-03T16:00:10.949Z,97299.78
2022-08-03T16:03:13.892Z,97291.63
2022-08-03T16:06:16.834Z,97296.78
2022-08-03T16:09:43.249Z,97293.94
2022-08-03T16:12:47.758Z,97292.13
2022-08-03T16:15:50.636Z,97287.44
2022-08-03T16:18:53.460Z,97285.09
2022-08-03T16:21:56.311Z,97283.66
2022-08-03T16:25:01.817Z,97286.63
2022-08-03T16:28:08.177Z,97282.47
2022-08-03T16:31:15.753Z,97281.38
2022-08-03T16:34:18.518Z,97288.56
2022-08-03T16:37:38.063Z,97287.22
2022-08-03T16:40:43.086Z,97284.63
2022-08-03T16:43:45.903Z,97296.13
2022-08-03T16:46:48.735Z,97289.19
2022-08-03T16:49:52.844Z,97287.03
2022-08-03T16:52:59.148Z,97289.44
2022-08-03T16:56:09.488Z,97291.19
2022-08-03T16:59:13.062Z,97287.72
2022-08-03T17:02:21.832Z,97296.47
2022-08-03T17:05:32.610Z,97292.78
2022-08-03T17:08:55.284Z,97290.84
2022-08-03T17:11:59.844Z,97289.81
2022-08-03T17:15:03.236Z,97298.84
2022-08-03T17:18:09.303Z,97299.44
2022-08-03T17:21:13.185Z,97296.22
2022-08-03T17:24:26.338Z,97303.41
2022-08-03T17:28:49.098Z,97303.97
2022-08-03T17:31:23.565Z,97309.81
2022-08-03T17:34:35.271Z,97296.88
2022-08-03T17:37:57.531Z,97303.22
2022-08-03T17:41:10.626Z,97299.81
2022-08-03T17:44:36.425Z,97303.44
2022-08-03T17:47:42.278Z,97305.66
2022-08-03T17:50:53.286Z,97300.84
2022-08-03T17:54:05.961Z,97307.97
2022-08-03T17:57:30.041Z,97293.34
2022-08-03T18:02:03.174Z,97302.19
2022-08-03T18:04:42.727Z,97304.00
2022-08-03T18:07:59.369Z,97309.72
2022-08-03T18:11:09.702Z,97306.53
2022-08-03T18:14:26.002Z,97308.50
2022-08-03T18:17:55.094Z,97317.97
2022-08-03T18:20:55.405Z,97319.44
2022-08-03T18:23:59.460Z,97310.72
2022-08-03T18:27:03.311Z,97317.53
2022-08-03T18:30:07.390Z,97309.88
2022-08-03T18:34:16.977Z,97326.13
2022-08-03T18:36:39.252Z,97316.28
2022-08-03T18:39:49.988Z,97315.56
2022-08-03T18:42:55.688Z,97315.06
2022-08-03T18:46:02.937Z,97317.34
2022-08-03T18:49:12.902Z,97317.44
2022-08-03T18:52:18.050Z,97307.91
2022-08-03T18:55:33.126Z,97307.22
2022-08-03T18:58:47.348Z,97314.72
2022-08-03T19:01:57.908Z,97307.78
2022-08-03T19:05:08.689Z,97321.59
2022-08-03T19:08:17.966Z,97316.31
2022-08-03T19:11:27.827Z,97318.53
2022-08-03T19:14:42.280Z,97323.50
2022-08-03T19:17:53.385Z,97319.84
2022-08-03T19:20:59.357Z,97319.91
2022-08-03T19:24:09.526Z,97324.31
2022-08-03T19:27:16.109Z,97320.97
2022-08-03T19:30:53.493Z,97332.81
2022-08-03T19:33:58.794Z,97333.09
2022-08-03T19:37:04.740Z,97333.22
2022-08-03T19:40:10.269Z,97327.44
2022-08-03T19:43:52.604Z,97328.06
2022-08-03T19:47:02.810Z,97325.97
2022-08-03T19:50:13.960Z,97337.31
2022-08-03T19:53:20.146Z,97322.69
2022-08-03T19:56:27.428Z,97331.91
2022-08-03T19:59:32.750Z,97327.88
2022-08-03T20:02:35.823Z,97322.31
2022-08-03T20:05:45.125Z,97323.41
2022-08-03T20:08:56.788Z,97321.78
2022-08-03T20:12:01.776Z,97327.66
2022-08-03T20:15:07.218Z,97324.44
2022-08-03T20:18:16.499Z,97317.16
2022-08-03T20:21:20.447Z,97326.31
2022-08-03T20:24:28.246Z,97329.75
2022-08-03T20:27:35.483Z,97323.81
2022-08-03T20:30:59.885Z,97312.22
2022-08-03T20:34:07.174Z,97320.78
2022-08-03T20:37:12.247Z,97328.06
2022-08-03T20:40:16.496Z,97316.25
2022-08-03T20:43:22.290Z,97326.22
2022-08-03T20:46:32.078Z,97328.94
2022-08-03T20:49:45.910Z,97324.94
2022-08-03T20:52:50.476Z,97327.63
2022-08-03T20:56:02.160Z,97326.50
2022-08-03T20:59:07.388Z,97333.53
2022-08-03T21:02:19.756Z,97336.47
2022-08-03T21:05:47.982Z,97336.19
2022-08-03T21:09:03.950Z,97330.81
2022-08-03T21:12:15.301Z,97337.00
2022-08-03T21:16:06.719Z,97337.78
2022-08-03T21:18:52.415Z,97346.63
2022-08-03T21:21:56.757Z,97339.84
2022-08-03T21:25:03.726Z,97337.72
2022-08-03T21:28:08.743Z,97340.13
2022-08-03T21:31:12.217Z,97344.88
2022-08-03T21:34:16.959Z,97336.19
2022-08-03T21:37:20.066Z,97338.03
2022-08-03T21:40:23.386Z,97333.16
2022-08-03T21:43:27.644Z,97344.44
2022-08-03T21:46:34.652Z,97341.50
2022-08-03T21:50:07.377Z,97343.09
2022-08-03T21:53:07.792Z,97352.25
2022-08-03T21:56:12.344Z,97351.94
2022-08-03T21:59:19.964Z,97353.88
2022-08-03T22:02:27.986Z,97353.50
2022-08-03T22:05:43.986Z,97361.06
2022-08-03T22:08:47.534Z,97346.22
2022-08-03T22:11:54.240Z,97357.41
2022-08-03T22:15:02.381Z,97352.50
2022-08-03T22:18:06.014Z,97358.13
2022-08-03T22:21:10.539Z,97365.56
2022-08-03T22:24:14.557Z,97357.13
2022-08-03T22:27:31.348Z,97355.72
2022-08-03T22:30:36.408Z,97364.56
2022-08-03T22:33:40.617Z,97363.53
2022-08-03T22:36:43.946Z,97364.16
2022-08-03T22:39:47.546Z,97362.66
2022-08-03T22:42:52.506Z,97365.41
2022-08-03T22:46:09.616Z,97370.16
2022-08-03T22:49:17.403Z,97366.59
2022-08-03T22:52:21.327Z,97368.16
2022-08-03T22:55:25.515Z,97370.84
2022-08-03T22:58:28.480Z,97370.22
2022-08-03T23:01:38.834Z,97374.25
2022-08-03T23:04:43.412Z,97373.75
2022-08-03T23:07:46.880Z,97377.00
2022-08-03T23:10:51.026Z,97373.88
2022-08-03T23:13:55.043Z,97374.59
2022-08-03T23:17:02.946Z,97369.09
2022-08-03T23:20:08.143Z,97371.09
2022-08-03T23:23:11.864Z,97366.47
2022-08-03T23:26:17.227Z,97366.59
2022-08-03T23:29:21.535Z,97361.22
2022-08-03T23:32:26.811Z,97361.00
2022-08-03T23:36:27.550Z,97367.25
2022-08-03T23:39:10.152Z,97369.47
2022-08-03T23:42:14.361Z,97366.78
2022-08-03T23:45:19.623Z,97360.34
2022-08-03T23:48:23.781Z,97364.16
2022-08-03T23:51:40.020Z,97364.81
2022-08-03T23:54:54.211Z,97358.19
2022-08-03T23:58:04.689Z,97359.56
